createdAt,value
2023-11-12T00:01:02.534Z,100.00
2023-11-12T00:03:50.938Z,100.00
2023-11-12T00:06:19.018Z,100.00
2023-11-12T00:08:47.765Z,100.00
2023-11-12T00:11:15.981Z,100.00
2023-11-12T00:13:43.909Z,100.00
2023-11-12T00:16:12.082Z,100.00
2023-11-12T00:18:40.723Z,100.00
2023-11-12T00:21:08.646Z,100.00
2023-11-12T00:23:37.558Z,100.00
2023-11-12T00:26:05.765Z,100.00
2023-11-12T00:28:34.139Z,100.00
2023-11-12T00:31:02.069Z,100.00
2023-11-12T00:33:31.046Z,100.00
2023-11-12T00:35:59.372Z,100.00
2023-11-12T00:38:27.275Z,100.00
2023-11-12T00:40:56.395Z,100.00
2023-11-12T00:43:28.391Z,100.00
2023-11-12T00:46:02.528Z,100.00
2023-11-12T00:48:30.503Z,100.00
2023-11-12T00:50:58.580Z,100.00
2023-11-12T00:53:28.421Z,100.00
2023-11-12T00:56:00.590Z,100.00
2023-11-12T00:58:28.872Z,99.85
2023-11-12T01:00:56.681Z,99.92
2023-11-12T01:03:29.560Z,99.48
2023-11-12T01:05:57.604Z,99.35
2023-11-12T01:08:26.564Z,99.79
2023-11-12T01:10:55.540Z,99.67
2023-11-12T01:13:23.734Z,99.20
2023-11-12T01:15:53.058Z,99.12
2023-11-12T01:18:22.390Z,99.43
2023-11-12T01:20:50.633Z,99.81
2023-11-12T01:23:18.604Z,99.53
2023-11-12T01:25:46.857Z,99.65
2023-11-12T01:28:14.731Z,99.82
2023-11-12T01:30:42.760Z,99.66
2023-11-12T01:33:11.624Z,99.41
2023-11-12T01:35:39.920Z,99.88
2023-11-12T01:38:08.447Z,99.47
2023-11-12T01:40:42.518Z,98.86
2023-11-12T01:43:11.222Z,98.49
2023-11-12T01:45:39.278Z,98.76
2023-11-12T01:48:09.798Z,98.94
2023-11-12T01:50:39.455Z,99.23
2023-11-12T01:53:10.567Z,99.79
2023-11-12T01:55:39.045Z,99.99
2023-11-12T01:58:10.548Z,100.00
2023-11-12T02:00:41.092Z,100.00
2023-11-12T02:03:12.962Z,100.00
2023-11-12T02:05:41.370Z,100.00
2023-11-12T02:08:10.220Z,100.00
2023-11-12T02:10:38.245Z,100.00
2023-11-12T02:13:07.948Z,100.00
2023-11-12T02:15:36.144Z,100.00
2023-11-12T02:18:04.532Z,100.00
2023-11-12T02:20:32.665Z,99.64
2023-11-12T02:23:00.654Z,99.22
2023-11-12T02:25:28.583Z,99.00
2023-11-12T02:27:56.658Z,98.27
2023-11-12T02:30:25.387Z,98.13
2023-11-12T02:32:53.427Z,98.23
2023-11-12T02:35:21.299Z,98.32
2023-11-12T02:37:49.330Z,98.11
2023-11-12T02:40:17.612Z,98.48
2023-11-12T02:42:45.586Z,98.69
2023-11-12T02:45:14.466Z,99.29
2023-11-12T02:47:44.568Z,99.14
2023-11-12T02:50:26.229Z,99.26
2023-11-12T02:52:55.139Z,99.12
2023-11-12T02:55:23.164Z,99.08
2023-11-12T02:57:51.276Z,98.96
2023-11-12T03:00:19.514Z,98.78
2023-11-12T03:02:49.142Z,98.46
2023-11-12T03:05:17.087Z,97.90
2023-11-12T03:07:45.064Z,98.30
2023-11-12T03:10:13.138Z,98.38
2023-11-12T03:12:41.126Z,98.28
2023-11-12T03:15:11.128Z,97.88
2023-11-12T03:17:40.276Z,96.97
2023-11-12T03:20:13.325Z,97.52
2023-11-12T03:22:41.261Z,97.75
2023-11-12T03:25:11.527Z,98.18
2023-11-12T03:27:39.988Z,98.20
2023-11-12T03:30:10.579Z,97.92
2023-11-12T03:32:39.936Z,97.75
2023-11-12T03:35:09.606Z,98.17
2023-11-12T03:37:37.865Z,98.53
2023-11-12T03:40:06.419Z,98.70
2023-11-12T03:42:34.500Z,98.52
2023-11-12T03:45:04.720Z,98.59
2023-11-12T03:47:32.968Z,98.31
2023-11-12T03:50:01.015Z,98.06
2023-11-12T03:52:28.979Z,98.35
2023-11-12T03:54:57.004Z,98.31
2023-11-12T03:57:25.384Z,98.15
2023-11-12T03:59:53.815Z,97.97
2023-11-12T04:02:22.316Z,98.12
2023-11-12T04:04:50.373Z,98.14
2023-11-12T04:07:18.528Z,97.93
2023-11-12T04:09:48.268Z,97.95
2023-11-12T04:12:16.287Z,97.74
2023-11-12T04:14:45.724Z,97.38
2023-11-12T04:17:14.284Z,97.79
2023-11-12T04:19:42.235Z,98.00
2023-11-12T04:22:10.200Z,97.33
2023-11-12T04:24:38.164Z,97.66
2023-11-12T04:27:07.768Z,97.76
2023-11-12T04:29:36.380Z,97.10
2023-11-12T04:32:05.753Z,97.30
2023-11-12T04:34:33.784Z,97.55
2023-11-12T04:37:01.871Z,97.69
2023-11-12T04:39:30.163Z,98.25
2023-11-12T04:42:01.009Z,98.54
2023-11-12T04:44:28.937Z,98.67
2023-11-12T04:46:56.787Z,98.33
2023-11-12T04:49:25.543Z,98.43
2023-11-12T04:51:54.991Z,98.76
2023-11-12T04:54:22.970Z,98.32
2023-11-12T04:56:50.923Z,98.21
2023-11-12T04:59:18.963Z,98.06
2023-11-12T05:01:47.217Z,97.43
2023-11-12T05:04:15.381Z,98.15
2023-11-12T05:06:45.739Z,97.73
2023-11-12T05:09:14.966Z,97.69
2023-11-12T05:12:10.975Z,98.38
2023-11-12T05:16:13.430Z,98.82
2023-11-12T05:18:42.117Z,99.38
2023-11-12T05:21:10.346Z,99.42
2023-11-12T05:23:40.289Z,99.24
2023-11-12T05:26:08.354Z,99.04
2023-11-12T05:30:01.259Z,98.80
2023-11-12T05:33:42.628Z,99.73
2023-11-12T05:36:10.800Z,99.71
2023-11-12T05:38:40.006Z,99.74
2023-11-12T05:41:09.095Z,99.75
2023-11-12T05:43:37.270Z,99.27
2023-11-12T05:46:09.627Z,98.72
2023-11-12T05:48:37.881Z,98.57
2023-11-12T05:51:10.507Z,98.43
2023-11-12T05:53:38.632Z,98.34
2023-11-12T05:56:08.319Z,98.13
2023-11-12T05:58:36.484Z,97.85
2023-11-12T06:01:04.702Z,97.99
2023-11-12T06:03:33.133Z,98.19
2023-11-12T06:06:01.376Z,98.10
2023-11-12T06:08:29.443Z,97.90
2023-11-12T06:10:57.828Z,97.78
2023-11-12T06:13:25.929Z,97.53
2023-11-12T06:15:54.834Z,97.20
2023-11-12T06:18:23.886Z,96.33
2023-11-12T06:20:53.200Z,96.55
2023-11-12T06:23:21.122Z,96.66
2023-11-12T06:25:49.414Z,96.38
2023-11-12T06:28:19.325Z,96.74
2023-11-12T06:30:47.540Z,96.36
2023-11-12T06:33:15.881Z,96.02
2023-11-12T06:35:45.040Z,95.78
2023-11-12T06:38:14.688Z,95.65
2023-11-12T06:40:42.714Z,95.59
2023-11-12T06:43:10.938Z,94.78
2023-11-12T06:45:40.076Z,94.81
2023-11-12T06:48:08.766Z,95.37
2023-11-12T06:50:36.686Z,95.16
2023-11-12T06:53:04.745Z,94.62
2023-11-12T06:55:34.195Z,94.24
2023-11-12T06:58:02.153Z,94.42
2023-11-12T07:00:30.107Z,94.52
2023-11-12T07:02:59.074Z,94.14
2023-11-12T07:08:10.783Z,94.14
2023-11-12T07:10:39.208Z,94.12
2023-11-12T07:13:07.478Z,93.47
2023-11-12T07:15:36.157Z,92.26
2023-11-12T07:18:04.238Z,91.95
2023-11-12T07:20:34.403Z,92.15
2023-11-12T07:23:02.679Z,91.12
2023-11-12T07:25:34.074Z,88.59
2023-11-12T07:28:02.147Z,89.05
2023-11-12T07:30:31.452Z,88.99
2023-11-12T07:32:59.568Z,87.97
2023-11-12T07:35:27.507Z,87.33
2023-11-12T07:37:55.458Z,84.94
2023-11-12T07:40:27.512Z,84.20
2023-11-12T07:42:57.818Z,83.85
2023-11-12T07:45:31.816Z,83.02
2023-11-12T07:48:08.254Z,82.90
2023-11-12T07:50:39.021Z,82.08
2023-11-12T07:53:07.082Z,79.50
2023-11-12T07:55:35.249Z,80.29
2023-11-12T07:58:04.005Z,80.66
2023-11-12T08:00:32.012Z,81.56
2023-11-12T08:03:00.204Z,80.90
2023-11-12T08:05:28.316Z,80.54
2023-11-12T08:07:56.524Z,81.50
2023-11-12T08:10:24.448Z,83.14
2023-11-12T08:12:53.556Z,82.82
2023-11-12T08:15:21.868Z,84.10
2023-11-12T08:17:50.960Z,83.84
2023-11-12T08:20:19.440Z,83.47
2023-11-12T08:22:48.309Z,84.03
2023-11-12T08:25:16.374Z,85.23
2023-11-12T08:27:44.720Z,84.95
2023-11-12T08:30:12.750Z,84.48
2023-11-12T08:32:40.984Z,84.54
2023-11-12T08:35:09.149Z,82.02
2023-11-12T08:37:37.337Z,82.08
2023-11-12T08:40:06.235Z,81.60
2023-11-12T08:42:35.170Z,79.18
2023-11-12T08:45:05.659Z,76.95
2023-11-12T08:47:33.620Z,76.00
2023-11-12T08:50:02.060Z,74.04
2023-11-12T08:53:07.963Z,71.81
2023-11-12T08:55:35.051Z,70.49
2023-11-12T08:58:01.849Z,69.89
2023-11-12T09:00:28.634Z,67.13
2023-11-12T09:02:55.201Z,66.63
2023-11-12T09:05:21.740Z,66.31
2023-11-12T09:07:50.721Z,64.51
2023-11-12T09:10:18.313Z,62.88
2023-11-12T09:12:45.207Z,62.36
2023-11-12T09:15:12.299Z,64.79
2023-11-12T09:17:39.104Z,64.59
2023-11-12T09:20:06.456Z,62.98
2023-11-12T09:22:33.978Z,63.38
2023-11-12T09:25:09.190Z,62.92
2023-11-12T09:27:38.532Z,64.07
2023-11-12T09:30:06.725Z,62.91
2023-11-12T09:32:37.920Z,62.07
2023-11-12T09:35:06.544Z,58.86
2023-11-12T09:37:33.215Z,57.91
2023-11-12T09:40:00.845Z,56.55
2023-11-12T09:42:30.614Z,54.88
2023-11-12T09:44:59.941Z,55.17
2023-11-12T09:47:42.558Z,53.52
2023-11-12T09:50:13.220Z,52.61
2023-11-12T09:52:40.315Z,52.13
2023-11-12T09:55:07.873Z,53.08
2023-11-12T09:57:35.846Z,52.87
2023-11-12T10:00:05.867Z,51.59
2023-11-12T10:02:34.536Z,50.22
2023-11-12T10:05:11.064Z,50.13
2023-11-12T10:07:41.520Z,48.00
2023-11-12T10:10:30.250Z,50.35
2023-11-12T10:12:57.562Z,51.21
2023-11-12T10:15:26.420Z,52.39
2023-11-12T10:17:57.552Z,53.15
2023-11-12T10:20:32.583Z,56.29
2023-11-12T10:23:00.162Z,56.39
2023-11-12T10:25:42.734Z,57.25
2023-11-12T10:28:12.709Z,58.28
2023-11-12T10:30:44.107Z,60.30
2023-11-12T10:33:24.868Z,61.63
2023-11-12T10:35:51.669Z,62.51
2023-11-12T10:38:18.636Z,63.55
2023-11-12T10:41:05.206Z,63.40
2023-11-12T10:43:32.970Z,63.17
2023-11-12T10:46:08.100Z,63.24
2023-11-12T10:48:38.777Z,63.37
2023-11-12T10:51:07.421Z,63.45
2023-11-12T10:53:36.883Z,62.08
2023-11-12T10:56:06.464Z,59.66
2023-11-12T10:58:33.755Z,58.41
2023-11-12T11:01:02.059Z,57.83
2023-11-12T11:03:30.806Z,57.26
2023-11-12T11:06:02.364Z,56.61
2023-11-12T11:08:36.751Z,57.43
2023-11-12T11:11:09.302Z,56.38
2023-11-12T11:13:37.544Z,54.08
2023-11-12T11:16:04.628Z,52.95
2023-11-12T11:18:34.534Z,51.63
2023-11-12T11:21:11.547Z,52.24
2023-11-12T11:23:56.768Z,50.56
2023-11-12T11:26:33.669Z,51.23
2023-11-12T11:29:05.193Z,51.75
2023-11-12T11:31:32.613Z,51.77
2023-11-12T11:34:00.836Z,50.44
2023-11-12T11:36:27.731Z,49.82
2023-11-12T11:39:07.091Z,48.67
2023-11-12T11:41:35.078Z,48.78
2023-11-12T11:44:33.593Z,47.85
2023-11-12T11:47:09.638Z,47.40
2023-11-12T11:49:38.629Z,47.64
2023-11-12T11:52:06.551Z,47.03
2023-11-12T11:54:34.578Z,47.22
2023-11-12T11:57:02.152Z,47.08
2023-11-12T11:59:35.952Z,47.95
2023-11-12T12:02:06.543Z,48.74
2023-11-12T12:04:33.725Z,50.35
2023-11-12T12:07:00.410Z,50.97
2023-11-12T12:09:27.276Z,51.15
2023-11-12T12:11:54.256Z,53.44
2023-11-12T12:14:22.603Z,55.80
2023-11-12T12:16:49.473Z,58.57
2023-11-12T12:19:24.233Z,60.52
2023-11-12T12:21:52.403Z,61.13
2023-11-12T12:24:21.863Z,61.41
2023-11-12T12:26:48.559Z,62.24
2023-11-12T12:29:17.518Z,62.77
2023-11-12T12:31:45.295Z,63.41
2023-11-12T12:34:12.994Z,62.89
2023-11-12T12:36:39.750Z,61.81
2023-11-12T12:39:10.344Z,60.55
2023-11-12T12:41:38.644Z,59.23
2023-11-12T12:44:05.402Z,57.73
2023-11-12T12:46:47.618Z,56.97
2023-11-12T12:49:31.113Z,56.73
2023-11-12T12:52:00.197Z,56.06
2023-11-12T12:54:30.098Z,56.52
2023-11-12T12:57:01.565Z,57.20
2023-11-12T12:59:38.165Z,57.56
2023-11-12T13:02:05.356Z,57.82
2023-11-12T13:04:35.598Z,58.19
2023-11-12T13:07:07.002Z,59.07
2023-11-12T13:09:34.165Z,59.80
2023-11-12T13:12:04.533Z,59.56
2023-11-12T13:14:34.564Z,58.71
2023-11-12T13:17:05.196Z,59.78
2023-11-12T13:19:33.883Z,60.81
2023-11-12T13:22:03.309Z,61.66
2023-11-12T13:24:30.822Z,62.62
2023-11-12T13:26:58.284Z,63.02
2023-11-12T13:29:27.903Z,64.84
2023-11-12T13:31:59.806Z,66.00
2023-11-12T13:34:26.554Z,66.60
2023-11-12T13:36:53.428Z,67.45
2023-11-12T13:39:20.474Z,68.77
2023-11-12T13:41:50.209Z,69.97
2023-11-12T13:44:19.167Z,70.52
2023-11-12T13:46:46.296Z,70.92
2023-11-12T13:49:16.205Z,71.73
2023-11-12T13:51:42.950Z,72.68
2023-11-12T13:54:13.434Z,73.21
2023-11-12T13:56:43.113Z,73.85
2023-11-12T13:59:09.846Z,74.02
2023-11-12T14:01:36.903Z,74.05
2023-11-12T14:04:08.165Z,74.42
2023-11-12T14:06:34.904Z,75.29
2023-11-12T14:09:01.750Z,74.93
2023-11-12T14:11:28.570Z,75.00
2023-11-12T14:13:56.340Z,75.21
2023-11-12T14:16:23.836Z,75.41
2023-11-12T14:18:50.405Z,75.64
2023-11-12T14:21:17.376Z,75.28
2023-11-12T14:23:44.107Z,75.35
2023-11-12T14:26:11.110Z,75.52
2023-11-12T14:28:39.377Z,76.02
2023-11-12T14:31:11.216Z,76.42
2023-11-12T14:33:40.095Z,76.63
2023-11-12T14:36:11.335Z,76.86
2023-11-12T14:38:38.237Z,76.97
2023-11-12T14:41:05.117Z,77.21
2023-11-12T14:43:38.403Z,77.85
2023-11-12T14:46:08.369Z,78.36
2023-11-12T14:48:35.647Z,78.54
2023-11-12T14:51:08.473Z,79.54
2023-11-12T14:53:34.974Z,79.82
2023-11-12T14:56:01.622Z,80.69
2023-11-12T14:58:28.184Z,81.17
2023-11-12T15:00:55.223Z,82.32
2023-11-12T15:03:23.590Z,82.50
2023-11-12T15:05:50.477Z,81.95
2023-11-12T15:08:16.956Z,82.44
2023-11-12T15:10:43.627Z,82.54
2023-11-12T15:13:10.253Z,82.94
2023-11-12T15:15:37.234Z,82.99
2023-11-12T15:18:04.488Z,83.63
2023-11-12T15:20:31.015Z,83.60
2023-11-12T15:22:57.523Z,83.82
2023-11-12T15:25:25.234Z,84.19
2023-11-12T15:27:51.896Z,84.07
2023-11-12T15:30:19.671Z,84.36
2023-11-12T15:32:46.777Z,84.44
2023-11-12T15:35:14.774Z,84.39
2023-11-12T15:37:41.551Z,85.18
2023-11-12T15:40:26.551Z,85.48
2023-11-12T15:42:56.977Z,85.72
2023-11-12T15:45:24.089Z,86.22
2023-11-12T15:47:51.031Z,86.95
2023-11-12T15:50:18.166Z,87.55
2023-11-12T15:52:45.774Z,88.09
2023-11-12T15:55:13.124Z,87.86
2023-11-12T15:57:41.266Z,88.05
2023-11-12T16:00:19.313Z,88.74
2023-11-12T16:02:47.627Z,89.52
2023-11-12T16:05:15.512Z,89.73
2023-11-12T16:07:43.511Z,89.77
2023-11-12T16:10:11.824Z,90.04
2023-11-12T16:12:38.785Z,90.28
2023-11-12T16:15:11.298Z,90.05
2023-11-12T16:17:38.948Z,90.44
2023-11-12T16:20:08.913Z,90.27
2023-11-12T16:22:38.701Z,89.99
2023-11-12T16:25:11.106Z,90.25
2023-11-12T16:27:38.659Z,90.18
2023-11-12T16:30:12.353Z,89.82
2023-11-12T16:32:39.129Z,89.83
2023-11-12T16:35:07.087Z,89.79
2023-11-12T16:37:33.966Z,89.52
2023-11-12T16:40:01.384Z,89.54
2023-11-12T16:42:28.904Z,89.47
2023-11-12T16:44:57.235Z,89.64
2023-11-12T16:47:24.213Z,89.81
2023-11-12T16:49:51.546Z,89.88
2023-11-12T16:52:18.300Z,90.22
2023-11-12T16:54:44.860Z,90.22
2023-11-12T16:57:11.538Z,89.95
2023-11-12T16:59:41.802Z,89.66
2023-11-12T17:02:11.637Z,90.02
2023-11-12T17:04:38.802Z,89.76
2023-11-12T17:07:08.899Z,89.40
2023-11-12T17:09:35.664Z,89.43
2023-11-12T17:12:02.214Z,89.40
2023-11-12T17:14:29.322Z,89.49
2023-11-12T17:16:55.948Z,89.33
2023-11-12T17:19:22.630Z,89.63
2023-11-12T17:21:50.958Z,89.00
2023-11-12T17:24:18.125Z,89.08
2023-11-12T17:26:46.426Z,89.45
2023-11-12T17:29:13.149Z,88.89
2023-11-12T17:31:39.757Z,88.31
2023-11-12T17:34:06.696Z,87.74
2023-11-12T17:36:36.581Z,87.28
2023-11-12T17:39:03.701Z,86.47
2023-11-12T17:41:30.289Z,86.48
2023-11-12T17:43:57.181Z,85.86
2023-11-12T17:46:23.886Z,85.82
2023-11-12T17:48:54.461Z,85.58
2023-11-12T17:51:22.465Z,85.53
2023-11-12T17:53:49.553Z,85.06
2023-11-12T17:56:16.091Z,84.69
2023-11-12T17:58:42.634Z,84.41
2023-11-12T18:01:09.607Z,84.28
2023-11-12T18:03:36.331Z,84.60
2023-11-12T18:06:05.906Z,84.94
2023-11-12T18:08:37.109Z,85.01
2023-11-12T18:11:04.620Z,84.68
2023-11-12T18:13:33.717Z,85.01
2023-11-12T18:16:01.817Z,85.20
2023-11-12T18:18:31.668Z,85.13
2023-11-12T18:20:59.820Z,84.98
2023-11-12T18:23:26.377Z,85.56
2023-11-12T18:25:53.115Z,85.85
2023-11-12T18:28:24.304Z,86.18
2023-11-12T18:30:53.762Z,84.65
2023-11-12T18:33:20.652Z,84.79
2023-11-12T18:35:47.936Z,84.80
2023-11-12T18:38:14.486Z,84.37
2023-11-12T18:40:41.274Z,84.20
2023-11-12T18:43:10.752Z,84.44
2023-11-12T18:45:37.812Z,84.49
2023-11-12T18:48:08.748Z,84.35
2023-11-12T18:50:37.677Z,83.50
2023-11-12T18:53:04.206Z,83.99
2023-11-12T18:55:31.016Z,83.61
2023-11-12T18:57:59.180Z,83.27
2023-11-12T19:00:25.867Z,83.23
2023-11-12T19:02:53.696Z,83.28
2023-11-12T19:05:22.148Z,82.74
2023-11-12T19:07:48.962Z,82.64
2023-11-12T19:10:16.916Z,82.56
2023-11-12T19:14:45.263Z,82.86
2023-11-12T19:17:13.404Z,82.66
2023-11-12T19:19:41.725Z,82.61
2023-11-12T19:22:12.248Z,82.40
2023-11-12T19:24:40.127Z,82.38
2023-11-12T19:27:08.448Z,81.87
2023-11-12T19:29:36.398Z,81.35
2023-11-12T19:32:05.468Z,81.08
2023-11-12T19:34:35.582Z,81.04
2023-11-12T19:37:03.826Z,80.76
2023-11-12T19:39:31.754Z,80.28
2023-11-12T19:41:59.604Z,80.44
2023-11-12T19:44:27.544Z,80.61
2023-11-12T19:46:55.540Z,80.66
2023-11-12T19:49:24.025Z,80.95
2023-11-12T19:51:52.050Z,81.27
2023-11-12T19:54:21.689Z,81.72
2023-11-12T19:56:52.049Z,81.94
2023-11-12T19:59:20.142Z,82.05
2023-11-12T20:01:48.229Z,81.81
2023-11-12T20:04:16.341Z,82.08
2023-11-12T20:06:44.308Z,82.07
2023-11-12T20:09:12.322Z,82.13
2023-11-12T20:11:40.613Z,81.75
2023-11-12T20:14:08.659Z,81.73
2023-11-12T20:16:36.946Z,82.21
2023-11-12T20:19:07.154Z,82.50
2023-11-12T20:21:44.542Z,82.42
2023-11-12T20:24:12.956Z,82.59
2023-11-12T20:26:51.614Z,82.74
2023-11-12T20:29:23.230Z,82.60
2023-11-12T20:31:55.697Z,82.65
2023-11-12T20:34:24.099Z,83.11
2023-11-12T20:36:52.410Z,83.16
2023-11-12T20:39:21.679Z,83.53
2023-11-12T20:41:51.963Z,83.09
2023-11-12T20:44:21.053Z,83.21
2023-11-12T20:46:50.478Z,83.45
2023-11-12T20:49:19.425Z,83.52
2023-11-12T20:51:48.459Z,83.57
2023-11-12T20:54:17.380Z,84.15
2023-11-12T20:56:45.951Z,84.00
2023-11-12T20:59:14.428Z,83.90
2023-11-12T21:01:44.019Z,84.16
2023-11-12T21:04:13.503Z,84.05
2023-11-12T21:06:44.230Z,83.67
2023-11-12T21:09:13.482Z,83.80
2023-11-12T21:14:38.736Z,84.60
2023-11-12T21:17:07.155Z,84.52
2023-11-12T21:19:35.114Z,84.66
2023-11-12T21:22:02.981Z,84.08
2023-11-12T21:24:30.820Z,83.89
2023-11-12T21:26:58.930Z,83.79
2023-11-12T21:29:26.938Z,84.12
2023-11-12T21:31:55.450Z,84.60
2023-11-12T21:34:23.480Z,84.77
2023-11-12T21:36:51.511Z,84.16
2023-11-12T21:39:20.416Z,84.54
2023-11-12T21:41:49.243Z,85.43
2023-11-12T21:44:20.131Z,85.67
2023-11-12T21:54:30.969Z,87.10
2023-11-12T21:57:00.012Z,86.66
2023-11-12T21:59:26.498Z,87.19
2023-11-12T22:01:53.383Z,87.05
2023-11-12T22:04:22.251Z,86.80
2023-11-12T22:06:50.598Z,86.96
2023-11-12T22:09:18.078Z,86.63
2023-11-12T22:11:46.177Z,86.28
2023-11-12T22:14:13.736Z,85.75
2023-11-12T22:16:44.106Z,85.52
2023-11-12T22:19:12.509Z,85.42
2023-11-12T22:21:40.419Z,85.78
2023-11-12T22:24:07.712Z,85.88
2023-11-12T22:26:37.056Z,85.52
2023-11-12T22:29:03.624Z,85.60
2023-11-12T22:31:30.327Z,85.72
2023-11-12T22:33:57.098Z,85.60
2023-11-12T22:36:23.700Z,85.33
2023-11-12T22:38:50.196Z,85.13
2023-11-12T22:41:16.691Z,85.06
2023-11-12T22:43:43.295Z,85.05
2023-11-12T22:46:10.308Z,84.84
2023-11-12T22:48:37.439Z,84.93
2023-11-12T22:51:05.844Z,84.62
2023-11-12T22:53:32.561Z,84.49
2023-11-12T22:55:59.694Z,84.36
2023-11-12T22:58:30.136Z,84.37
2023-11-12T23:01:00.673Z,84.42
2023-11-12T23:03:29.163Z,85.21
2023-11-12T23:05:55.865Z,85.16
2023-11-12T23:08:22.383Z,85.36
2023-11-12T23:10:49.389Z,85.72
2023-11-12T23:13:19.771Z,86.29
2023-11-12T23:15:46.666Z,86.33
2023-11-12T23:18:13.419Z,86.51
2023-11-12T23:20:40.596Z,86.74
2023-11-12T23:23:07.249Z,86.84
2023-11-12T23:25:33.800Z,87.12
2023-11-12T23:28:00.498Z,87.47
2023-11-12T23:30:31.146Z,87.38
2023-11-12T23:32:57.717Z,87.34
2023-11-12T23:35:26.674Z,87.67
2023-11-12T23:37:53.305Z,88.08
2023-11-12T23:40:19.852Z,88.31
2023-11-12T23:42:46.346Z,88.42
2023-11-12T23:45:13.584Z,88.58
2023-11-12T23:47:40.262Z,88.79
2023-11-12T23:50:08.218Z,89.22
2023-11-12T23:52:34.700Z,89.46
2023-11-12T23:55:01.613Z,89.01
2023-11-12T23:57:28.109Z,89.05
2023-11-12T23:59:54.677Z,89.38
